Time;durP1;ratioP1;P1;durP2;ratioP2;P2;SDS_P1;SDS_P2;PMS_P1;PMS_P2;Temp;Humidity;BMP_temperature;BMP_pressure;BME280_temperature;BME280_humidity;BME280_pressure;Samples;Min_cycle;Max_cycle;Signal;HPM_P1;HPM_P2
2023/08/21 00:00:13;;;;;;;6.60;5.97;;;;;;;25.66;43.40;95418.28;6060275;28;110837;-62
2023/08/21 00:03:16;;;;;;;6.40;5.80;;;;;;;25.78;43.29;95417.63;6060243;28;110145;-62
2023/08/21 00:06:19;;;;;;;7.22;6.32;;;;;;;25.76;43.73;95415.25;6048622;28;109761;-62
2023/08/21 00:09:22;;;;;;;6.95;6.25;;;;;;;25.74;43.71;95422.06;6067168;28;109920;-61
2023/08/21 00:12:25;;;;;;;6.50;5.90;;;;;;;25.75;43.42;95420.94;6059764;28;110074;-61
2023/08/21 00:15:30;;;;;;;6.63;6.03;;;;;;;25.76;43.36;95420.63;6054976;28;110170;-61
2023/08/21 00:18:33;;;;;;;6.60;6.10;;;;;;;25.80;43.46;95416.19;6053840;28;110871;-62
2023/08/21 00:21:36;;;;;;;7.38;6.30;;;;;;;25.83;43.09;95410.19;6054463;28;109755;-63
2023/08/21 00:24:39;;;;;;;6.80;6.20;;;;;;;25.83;43.68;95412.06;6049689;28;109932;-60
2023/08/21 00:27:42;;;;;;;6.90;6.20;;;;;;;25.83;42.81;95417.44;6063113;28;110074;-61
2023/08/21 00:30:47;;;;;;;6.70;6.10;;;;;;;25.89;42.87;95414.28;6039175;28;109936;-62
2023/08/21 00:33:50;;;;;;;6.80;6.20;;;;;;;25.87;43.26;95413.00;6059926;28;109761;-62
2023/08/21 00:36:53;;;;;;;7.00;6.40;;;;;;;25.79;43.30;95405.78;6061985;28;109960;-62
2023/08/21 00:39:56;;;;;;;6.63;6.03;;;;;;;25.80;43.44;95416.19;6059232;28;111247;-63
2023/08/21 00:42:59;;;;;;;7.07;6.38;;;;;;;25.78;43.38;95410.34;6054217;28;109952;-61
2023/08/21 00:46:04;;;;;;;6.38;5.88;;;;;;;25.81;43.20;95416.97;6061980;28;110185;-62
2023/08/21 00:49:08;;;;;;;6.70;6.20;;;;;;;25.85;43.01;95417.91;6055819;28;109974;-61
2023/08/21 00:52:13;;;;;;;6.55;5.95;;;;;;;25.80;43.22;95418.88;6047311;28;109931;-61
2023/08/21 00:55:17;;;;;;;6.30;5.80;;;;;;;25.75;43.79;95427.09;6051988;28;109936;-64
2023/08/21 00:58:21;;;;;;;6.90;6.30;;;;;;;25.75;43.59;95420.94;6064031;28;110536;-61
2023/08/21 01:01:26;;;;;;;6.80;6.20;;;;;;;25.79;43.50;95429.91;6060421;28;110595;-62
2023/08/21 01:04:29;;;;;;;6.80;6.20;;;;;;;25.77;43.11;95424.88;6045376;28;110901;-62
2023/08/21 01:07:39;;;;;;;6.90;6.30;;;;;;;25.80;43.33;95428.81;6063230;28;110083;-62
2023/08/21 01:10:51;;;;;;;6.85;6.25;;;;;;;25.66;43.48;95431.69;6050495;28;109895;-61
2023/08/21 01:14:01;;;;;;;6.72;6.22;;;;;;;25.65;43.22;95427.41;6034719;28;110016;-63
2023/08/21 01:17:07;;;;;;;6.90;6.40;;;;;;;25.61;43.52;95429.16;6034378;28;110177;-61
2023/08/21 01:20:11;;;;;;;6.90;6.30;;;;;;;25.63;43.52;95425.06;6051774;28;109841;-61
2023/08/21 01:23:32;;;;;;;7.00;6.40;;;;;;;25.69;43.32;95420.31;6064020;28;112718;-61
2023/08/21 01:26:35;;;;;;;6.40;5.90;;;;;;;25.75;43.44;95429.78;6045733;28;109810;-61
2023/08/21 01:29:38;;;;;;;6.90;6.30;;;;;;;25.65;43.54;95433.56;6060028;28;110045;-61
2023/08/21 01:33:00;;;;;;;7.13;6.53;;;;;;;25.68;43.71;95429.47;6047830;28;111239;-62
2023/08/21 01:36:05;;;;;;;7.07;6.37;;;;;;;25.73;44.05;95425.84;6048746;28;109960;-61
2023/08/21 01:39:09;;;;;;;6.70;6.10;;;;;;;25.62;43.80;95422.69;6048249;28;110156;-61
2023/08/21 01:42:12;;;;;;;6.55;5.95;;;;;;;25.72;43.15;95426.94;6060736;28;109912;-64
2023/08/21 01:45:15;;;;;;;6.78;6.28;;;;;;;25.73;43.39;95428.53;6060648;28;110317;-63
2023/08/21 01:48:18;;;;;;;6.40;5.90;;;;;;;25.74;42.94;95432.78;6053480;28;109955;-63
2023/08/21 01:51:21;;;;;;;6.85;6.35;;;;;;;25.76;43.28;95431.34;6056450;28;109799;-65
2023/08/21 01:54:26;;;;;;;6.55;6.05;;;;;;;25.77;43.41;95427.56;6056731;28;111257;-65
2023/08/21 01:57:29;;;;;;;7.07;6.38;;;;;;;25.75;43.54;95429.78;6060877;28;111124;-63
2023/08/21 02:00:32;;;;;;;6.80;6.20;;;;;;;25.75;43.41;95423.63;6038233;28;110991;-63
2023/08/21 02:03:35;;;;;;;7.00;6.30;;;;;;;25.69;43.30;95426.44;6055825;28;110888;-63
2023/08/21 02:06:39;;;;;;;6.63;6.13;;;;;;;25.73;43.52;95423.94;6062148;28;109949;-63
2023/08/21 02:09:43;;;;;;;6.50;6.00;;;;;;;25.72;43.40;95418.91;6056410;28;109972;-63
2023/08/21 02:12:46;;;;;;;7.07;6.57;;;;;;;25.68;43.34;95418.72;6050371;28;109959;-64
2023/08/21 02:15:50;;;;;;;6.50;6.00;;;;;;;25.72;43.69;95424.28;6046122;28;109945;-64
2023/08/21 02:18:53;;;;;;;7.00;6.40;;;;;;;25.72;43.39;95425.06;6055531;28;110606;-64
2023/08/21 02:21:56;;;;;;;6.70;6.10;;;;;;;25.75;43.38;95418.25;6057538;28;110160;-63
2023/08/21 02:25:00;;;;;;;7.07;6.47;;;;;;;25.70;43.32;95421.88;6048276;28;110597;-64
2023/08/21 02:28:04;;;;;;;6.50;5.70;;;;;;;25.63;43.53;95417.03;6058963;28;110530;-66
2023/08/21 02:31:10;;;;;;;6.35;5.85;;;;;;;25.62;43.46;95414.66;6058952;28;110858;-68
2023/08/21 02:34:13;;;;;;;6.50;6.00;;;;;;;25.58;43.97;95422.56;6034311;28;109708;-69
2023/08/21 02:37:16;;;;;;;7.15;6.55;;;;;;;25.56;43.56;95414.06;6061486;28;110934;-63
2023/08/21 02:40:21;;;;;;;6.90;6.30;;;;;;;25.65;43.24;95428.22;6061498;28;110277;-64
2023/08/21 02:43:24;;;;;;;6.87;6.37;;;;;;;25.70;43.60;95421.88;6060234;28;110124;-67
2023/08/21 02:46:27;;;;;;;7.40;6.50;;;;;;;25.51;43.93;95430.28;6051377;28;109941;-64
2023/08/21 02:49:30;;;;;;;7.27;6.57;;;;;;;25.23;44.90;95421.00;6062968;28;110430;-65
2023/08/21 02:52:34;;;;;;;7.73;6.80;;;;;;;25.13;45.46;95424.00;6062140;28;113509;-65
2023/08/21 02:55:38;;;;;;;7.40;6.80;;;;;;;25.27;44.82;95427.28;6046685;28;109925;-64
2023/08/21 02:58:41;;;;;;;7.10;6.60;;;;;;;25.35;44.60;95421.94;6031691;28;109670;-65
2023/08/21 03:01:45;;;;;;;7.37;6.77;;;;;;;25.43;44.47;95430.31;6055054;28;110018;-65
2023/08/21 03:04:48;;;;;;;7.55;6.95;;;;;;;25.34;44.56;95433.75;6065050;28;109748;-63
2023/08/21 03:07:51;;;;;;;7.63;7.03;;;;;;;25.22;45.06;95432.81;6060207;28;109845;-66
2023/08/21 03:10:56;;;;;;;8.27;7.47;;;;;;;25.05;45.48;95433.63;6057226;28;110059;-63
2023/08/21 03:13:59;;;;;;;11.00;10.10;;;;;;;25.34;44.90;95430.28;6065006;28;109827;-65
2023/08/21 03:17:02;;;;;;;11.90;10.90;;;;;;;25.50;44.53;95435.97;6064757;28;109775;-65
2023/08/21 03:20:06;;;;;;;20.60;18.80;;;;;;;25.42;44.73;95439.44;6054224;28;109908;-65
2023/08/21 03:23:09;;;;;;;17.50;15.90;;;;;;;25.48;44.35;95441.63;6065221;28;111217;-64
2023/08/21 03:26:14;;;;;;;17.60;16.10;;;;;;;25.52;44.83;95447.94;6063825;28;109962;-63
2023/08/21 03:29:17;;;;;;;52.92;48.53;;;;;;;25.41;45.04;95445.91;6050984;28;109938;-62
2023/08/21 03:32:20;;;;;;;37.67;34.58;;;;;;;25.30;45.52;95450.78;6035108;28;109729;-62
2023/08/21 03:35:23;;;;;;;21.02;19.23;;;;;;;25.32;45.04;95445.88;6064504;28;110166;-63
2023/08/21 03:38:26;;;;;;;28.70;26.10;;;;;;;25.44;45.45;95440.72;6062070;28;109805;-64
2023/08/21 03:41:31;;;;;;;30.52;27.92;;;;;;;25.62;45.47;95447.63;6055814;28;109889;-63
2023/08/21 03:44:34;;;;;;;34.47;31.47;;;;;;;25.71;45.40;95439.56;6056660;28;110948;-63
2023/08/21 03:47:37;;;;;;;24.23;22.02;;;;;;;25.71;45.53;95444.13;6062323;28;110113;-65
2023/08/21 03:50:40;;;;;;;20.92;19.13;;;;;;;25.71;45.79;95441.44;6054508;28;109751;-64
2023/08/21 03:53:43;;;;;;;21.83;20.00;;;;;;;25.77;45.86;95450.91;6053705;28;110004;-62
2023/08/21 03:56:48;;;;;;;14.90;13.50;;;;;;;25.75;46.05;95445.06;6070726;28;110082;-64
2023/08/21 03:59:51;;;;;;;16.85;15.15;;;;;;;25.78;46.24;95449.78;6061280;28;109807;-65
2023/08/21 04:02:54;;;;;;;15.80;14.45;;;;;;;25.71;45.92;95441.44;6073058;28;109607;-68
2023/08/21 04:05:58;;;;;;;14.30;13.10;;;;;;;25.80;45.97;95450.25;6036255;28;110519;-69
2023/08/21 04:09:01;;;;;;;14.70;13.30;;;;;;;25.79;46.08;95451.38;6061629;28;111127;-70
2023/08/21 04:12:06;;;;;;;14.05;12.65;;;;;;;25.80;46.43;95444.88;6059437;28;109898;-68
2023/08/21 04:15:11;;;;;;;13.10;11.80;;;;;;;25.75;47.10;95456.59;6060578;28;110317;-69
2023/08/21 04:18:14;;;;;;;12.60;11.50;;;;;;;25.77;46.68;95448.22;6048223;28;109673;-70
2023/08/21 04:21:32;;;;;;;13.13;11.07;;;;;;;25.80;47.34;95450.25;6063687;28;110483;-74
2023/08/21 04:24:35;;;;;;;9.43;8.43;;;;;;;25.59;46.62;95452.81;6055970;28;109941;-71
2023/08/21 04:27:40;;;;;;;8.90;8.10;;;;;;;25.56;46.50;95458.81;6038311;28;110605;-71
2023/08/21 04:30:43;;;;;;;8.60;7.70;;;;;;;25.45;46.84;95458.34;6048806;28;110349;-69
2023/08/21 04:33:46;;;;;;;9.43;8.52;;;;;;;25.55;46.86;95458.03;6040565;28;109886;-69
2023/08/21 04:36:49;;;;;;;9.88;8.93;;;;;;;25.60;46.55;95457.88;6040570;28;109963;-70
2023/08/21 04:39:53;;;;;;;9.50;8.60;;;;;;;25.62;47.11;95458.34;6037495;28;109836;-70
2023/08/21 04:42:57;;;;;;;9.30;8.40;;;;;;;25.58;47.18;95465.44;6064147;28;110039;-70
2023/08/21 04:46:00;;;;;;;8.95;8.25;;;;;;;25.63;46.64;95465.25;6063834;28;109802;-70
2023/08/21 04:49:03;;;;;;;8.40;7.70;;;;;;;25.60;46.63;95468.59;6063139;28;109770;-69
2023/08/21 04:52:06;;;;;;;8.60;7.90;;;;;;;25.56;46.51;95464.97;6053329;28;109463;-69
2023/08/21 04:55:10;;;;;;;8.60;7.80;;;;;;;25.63;46.65;95464.47;6063571;28;109933;-70
2023/08/21 04:58:16;;;;;;;9.40;8.70;;;;;;;25.65;46.59;95473.00;6063886;28;110017;-69
2023/08/21 05:01:19;;;;;;;9.18;8.27;;;;;;;25.64;46.78;95480.25;6058223;28;109801;-69
2023/08/21 05:04:22;;;;;;;10.98;8.40;;;;;;;25.64;46.97;95477.56;6055891;28;109657;-69
2023/08/21 05:07:26;;;;;;;9.38;8.38;;;;;;;25.67;46.45;95482.28;6043890;28;109959;-69
2023/08/21 05:10:32;;;;;;;8.50;7.80;;;;;;;25.68;46.51;95483.84;6063578;28;109790;-69
2023/08/21 05:13:37;;;;;;;8.37;7.57;;;;;;;25.66;46.46;95485.28;6052331;28;109818;-69
2023/08/21 05:16:40;;;;;;;9.00;8.20;;;;;;;25.69;46.71;95485.44;6044341;28;111896;-68
2023/08/21 05:19:43;;;;;;;10.00;9.10;;;;;;;25.69;46.55;95488.09;6043693;28;110859;-69
2023/08/21 05:22:46;;;;;;;9.60;8.73;;;;;;;25.62;46.84;95501.22;6063571;28;111007;-70
2023/08/21 05:25:50;;;;;;;10.07;9.07;;;;;;;25.48;46.62;95489.88;6052090;28;109794;-68
2023/08/21 05:28:54;;;;;;;10.30;9.30;;;;;;;25.54;46.88;95485.94;6063320;28;109939;-68
2023/08/21 05:31:57;;;;;;;10.85;9.95;;;;;;;25.56;47.04;95491.78;6047640;28;110430;-69
2023/08/21 05:35:00;;;;;;;14.35;12.95;;;;;;;25.64;46.67;95484.81;6035222;28;109975;-68
2023/08/21 05:38:04;;;;;;;12.50;11.40;;;;;;;25.66;46.87;95486.06;6050129;28;109743;-69
2023/08/21 05:41:07;;;;;;;10.60;9.80;;;;;;;25.74;46.43;95491.75;6087293;28;110997;-69
2023/08/21 05:44:11;;;;;;;9.70;8.63;;;;;;;25.81;46.15;95481.31;6086931;28;110051;-69
2023/08/21 05:47:14;;;;;;;10.80;9.80;;;;;;;25.86;46.03;95484.63;6030177;28;109987;-70
2023/08/21 05:50:18;;;;;;;12.80;10.60;;;;;;;25.98;46.25;95486.66;6038401;28;109739;-69
2023/08/21 05:53:21;;;;;;;16.58;14.98;;;;;;;26.11;47.40;95484.91;6039641;28;110745;-71
2023/08/21 05:56:24;;;;;;;13.95;12.63;;;;;;;26.15;46.15;95475.88;6038889;28;109541;-70
2023/08/21 05:59:31;;;;;;;15.25;13.93;;;;;;;26.19;46.63;95482.19;6029098;28;109395;-70
2023/08/21 06:02:34;;;;;;;14.55;13.25;;;;;;;26.22;46.96;95484.25;6063132;28;110105;-70
2023/08/21 06:05:38;;;;;;;15.05;13.13;;;;;;;26.15;47.24;95485.84;6053869;28;109715;-69
2023/08/21 06:08:41;;;;;;;14.70;13.30;;;;;;;26.19;47.12;95478.72;6065336;28;109943;-68
2023/08/21 06:11:44;;;;;;;13.57;12.38;;;;;;;26.25;46.75;95491.66;6058739;28;110101;-69
2023/08/21 06:14:48;;;;;;;11.97;10.87;;;;;;;26.22;46.12;95497.66;6060851;28;110025;-69
2023/08/21 06:17:52;;;;;;;11.23;10.32;;;;;;;26.24;46.15;95495.44;6039277;28;109812;-68
2023/08/21 06:20:56;;;;;;;12.77;11.68;;;;;;;26.31;46.44;95496.81;6047915;28;109947;-69
2023/08/21 06:23:59;;;;;;;12.18;11.07;;;;;;;26.40;46.62;95494.91;6063005;28;111018;-69
2023/08/21 06:27:03;;;;;;;13.10;11.90;;;;;;;26.45;46.18;95494.72;6047807;28;109841;-69
2023/08/21 06:30:12;;;;;;;13.63;12.25;;;;;;;26.52;46.77;95492.31;6043471;28;109723;-68
2023/08/21 06:33:15;;;;;;;13.68;12.10;;;;;;;26.51;46.47;95496.88;6032461;28;111697;-70
2023/08/21 06:36:18;;;;;;;13.55;12.20;;;;;;;26.52;46.26;95498.47;6043284;28;109749;-70
2023/08/21 06:39:21;;;;;;;13.50;11.80;;;;;;;26.63;46.59;95496.25;6078098;28;110405;-69
2023/08/21 06:42:25;;;;;;;13.40;12.10;;;;;;;26.74;46.86;95499.34;6047843;28;110350;-70
2023/08/21 06:45:30;;;;;;;13.07;11.68;;;;;;;26.83;46.87;95497.38;6038768;28;110005;-69
2023/08/21 06:48:33;;;;;;;13.23;11.15;;;;;;;26.82;46.05;95493.13;6066719;28;110766;-69
2023/08/21 06:51:36;;;;;;;12.93;10.90;;;;;;;26.83;45.81;95503.53;6051275;28;109721;-69
2023/08/21 06:54:39;;;;;;;14.68;12.38;;;;;;;26.98;45.84;95504.88;6038009;28;110902;-70
2023/08/21 06:57:42;;;;;;;14.20;11.60;;;;;;;27.03;46.00;95506.59;6059751;28;110061;-71
2023/08/21 07:00:47;;;;;;;12.85;11.23;;;;;;;27.04;45.72;95500.09;6059293;28;111118;-70
2023/08/21 07:03:50;;;;;;;13.07;10.60;;;;;;;26.98;45.12;95499.50;6042669;28;110139;-69
2023/08/21 07:06:53;;;;;;;13.27;10.50;;;;;;;26.91;45.47;95501.94;6032233;28;109857;-68
2023/08/21 07:09:56;;;;;;;10.40;9.40;;;;;;;26.84;44.74;95502.44;6063520;28;111159;-69
2023/08/21 07:13:00;;;;;;;13.20;9.80;;;;;;;26.81;44.57;95496.94;6065788;28;109845;-70
2023/08/21 07:16:06;;;;;;;12.77;10.18;;;;;;;26.76;44.52;95500.59;6065824;28;110913;-69
2023/08/21 07:19:09;;;;;;;11.70;9.37;;;;;;;26.69;44.54;95500.31;6055474;28;110152;-69
2023/08/21 07:22:12;;;;;;;10.23;9.23;;;;;;;26.71;44.25;95495.41;6047545;28;110165;-70
2023/08/21 07:25:15;;;;;;;10.73;9.07;;;;;;;26.92;44.56;95497.34;6042492;28;111110;-69
2023/08/21 07:28:18;;;;;;;10.50;9.40;;;;;;;27.34;44.22;95490.91;6042234;28;111092;-69
2023/08/21 07:31:23;;;;;;;11.00;9.60;;;;;;;27.46;43.33;95490.19;6031139;28;109985;-68
2023/08/21 07:34:26;;;;;;;10.75;9.57;;;;;;;27.57;43.53;95491.38;6042080;28;109872;-68
2023/08/21 07:37:29;;;;;;;11.20;9.50;;;;;;;27.62;43.33;95496.53;6043678;28;109840;-69
2023/08/21 07:40:32;;;;;;;13.10;9.73;;;;;;;27.46;44.02;95487.50;6058323;28;111082;-67
2023/08/21 07:43:35;;;;;;;12.90;9.18;;;;;;;27.31;43.77;95488.09;6062959;28;110232;-69
2023/08/21 07:46:40;;;;;;;10.48;9.43;;;;;;;27.20;44.33;95484.97;6064766;28;109695;-69
2023/08/21 07:49:43;;;;;;;11.13;9.83;;;;;;;27.15;44.00;95485.97;6065319;28;110265;-68
2023/08/21 07:52:47;;;;;;;13.33;10.30;;;;;;;27.12;44.10;95485.84;6053731;28;110107;-69
2023/08/21 07:55:50;;;;;;;12.40;10.30;;;;;;;27.11;44.02;95479.69;6064288;28;111347;-68
2023/08/21 07:58:53;;;;;;;11.30;10.10;;;;;;;27.12;43.29;95480.47;6064663;28;109831;-69
2023/08/21 08:01:57;;;;;;;12.95;10.82;;;;;;;27.13;43.68;95482.03;6051679;28;110030;-69
2023/08/21 08:05:01;;;;;;;10.70;9.70;;;;;;;27.34;43.06;95479.38;6030447;28;109724;-69
2023/08/21 08:08:05;;;;;;;10.13;9.13;;;;;;;27.49;42.84;95476.06;6047506;28;109637;-69
2023/08/21 08:11:08;;;;;;;11.65;10.05;;;;;;;27.40;43.29;95470.78;6064617;28;109785;-70
2023/08/21 08:14:11;;;;;;;10.38;9.48;;;;;;;27.39;42.89;95463.84;6060483;28;109908;-68
2023/08/21 08:17:15;;;;;;;10.50;9.40;;;;;;;27.34;43.38;95468.63;6059000;28;109703;-70
2023/08/21 08:20:19;;;;;;;10.60;9.50;;;;;;;27.33;43.59;95464.34;6064663;28;110053;-69
2023/08/21 08:23:23;;;;;;;10.00;9.00;;;;;;;27.31;42.94;95453.94;6063967;28;109793;-69
2023/08/21 08:26:26;;;;;;;10.25;9.25;;;;;;;27.31;42.50;95458.53;6054286;28;109832;-69
2023/08/21 08:29:29;;;;;;;9.60;8.70;;;;;;;27.33;42.16;95458.97;6064745;28;109822;-70
2023/08/21 08:32:33;;;;;;;10.10;8.90;;;;;;;27.38;42.52;95456.09;6064177;28;110531;-70
2023/08/21 08:35:37;;;;;;;11.70;10.60;;;;;;;27.40;42.11;95451.97;6063794;28;110184;-69
2023/08/21 08:38:40;;;;;;;13.80;12.60;;;;;;;27.40;41.86;95446.59;6053493;28;109917;-69
2023/08/21 08:41:51;;;;;;;12.18;11.18;;;;;;;27.41;41.47;95450.06;6063604;28;109953;-69
2023/08/21 08:44:56;;;;;;;9.88;8.98;;;;;;;27.56;41.37;95448.69;6064205;28;109933;-72
2023/08/21 08:48:02;;;;;;;9.80;8.90;;;;;;;27.52;41.23;95442.38;6063259;28;109807;-67
2023/08/21 08:51:05;;;;;;;10.27;9.37;;;;;;;27.48;41.69;95436.09;6056835;28;109678;-70
2023/08/21 08:54:10;;;;;;;9.00;8.13;;;;;;;28.03;40.26;95438.38;6063173;28;109980;-70
2023/08/21 08:57:13;;;;;;;9.27;7.82;;;;;;;28.44;40.09;95437.41;6063512;28;109818;-70
2023/08/21 09:00:16;;;;;;;8.32;7.63;;;;;;;28.27;40.26;95429.56;6054303;28;109944;-72
2023/08/21 09:03:21;;;;;;;8.30;7.40;;;;;;;28.08;40.71;95426.63;6063252;28;109765;-71
2023/08/21 09:06:25;;;;;;;8.90;8.00;;;;;;;28.23;40.42;95431.34;6063497;28;109748;-71
2023/08/21 09:09:28;;;;;;;8.67;7.50;;;;;;;28.09;40.48;95436.28;6079642;28;111333;-71
2023/08/21 09:12:33;;;;;;;9.40;7.88;;;;;;;28.32;39.70;95432.00;6076863;28;109921;-71
2023/08/21 09:15:37;;;;;;;8.20;7.40;;;;;;;28.14;40.57;95436.03;6088063;28;109792;-71
2023/08/21 09:18:49;;;;;;;7.97;7.18;;;;;;;28.17;40.28;95427.28;6087343;28;109805;-71
2023/08/21 09:21:52;;;;;;;8.30;7.50;;;;;;;28.45;39.49;95425.50;6087585;28;109805;-71
2023/08/21 09:25:06;;;;;;;8.52;7.70;;;;;;;28.23;39.99;95415.22;6075945;28;110039;-71
2023/08/21 09:28:10;;;;;;;8.60;7.60;;;;;;;27.97;40.29;95418.97;6087248;28;109484;-70
2023/08/21 09:31:13;;;;;;;10.02;7.80;;;;;;;27.79;41.26;95417.59;6087377;28;109949;-71
2023/08/21 09:34:17;;;;;;;9.67;8.20;;;;;;;27.72;40.49;95403.88;6079021;28;110257;-69
2023/08/21 09:37:21;;;;;;;9.05;7.22;;;;;;;27.98;40.29;95409.00;6087503;28;108669;-71
2023/08/21 09:40:24;;;;;;;8.13;6.80;;;;;;;28.40;38.61;95406.91;6064697;28;110942;-71
2023/08/21 09:43:28;;;;;;;7.30;6.70;;;;;;;28.60;38.42;95402.53;6063999;28;109782;-70
2023/08/21 09:46:31;;;;;;;7.53;6.90;;;;;;;28.28;38.63;95406.91;6054994;28;110772;-70
2023/08/21 09:49:37;;;;;;;8.03;7.20;;;;;;;28.03;39.44;95406.88;6063397;28;111271;-71
2023/08/21 09:52:41;;;;;;;7.90;7.20;;;;;;;27.87;40.21;95403.25;6063477;28;110694;-70
2023/08/21 09:55:45;;;;;;;7.15;6.40;;;;;;;27.78;39.57;95402.56;6065556;28;110141;-61
2023/08/21 09:58:49;;;;;;;7.60;6.90;;;;;;;28.11;39.68;95393.66;6058199;28;110958;-61
2023/08/21 10:01:52;;;;;;;7.83;7.13;;;;;;;28.03;39.57;95388.03;6067273;28;111755;-61
2023/08/21 10:04:58;;;;;;;7.40;6.80;;;;;;;27.89;39.35;95384.09;6067112;28;109902;-62
2023/08/21 10:08:03;;;;;;;8.13;6.90;;;;;;;27.86;39.56;95384.75;6061927;28;109883;-61
2023/08/21 10:11:08;;;;;;;7.70;7.10;;;;;;;28.27;38.20;95383.78;6061854;28;110854;-62
2023/08/21 10:14:12;;;;;;;7.80;6.50;;;;;;;28.39;37.80;95375.69;6066968;28;110264;-62
2023/08/21 10:17:15;;;;;;;7.63;6.90;;;;;;;28.12;38.84;95373.69;6067242;28;111119;-61
2023/08/21 10:20:23;;;;;;;7.40;6.70;;;;;;;28.31;38.17;95365.84;6055974;28;110306;-61
2023/08/21 10:23:29;;;;;;;7.50;6.53;;;;;;;28.24;38.50;95373.72;6066834;28;109987;-61
2023/08/21 10:26:38;;;;;;;7.30;6.60;;;;;;;28.33;37.80;95369.75;6065836;28;109934;-61
2023/08/21 10:29:57;;;;;;;7.50;6.80;;;;;;;28.33;38.25;95363.59;6066965;28;109811;-61
2023/08/21 10:33:01;;;;;;;7.10;6.50;;;;;;;28.48;36.93;95351.38;6055276;28;110994;-61
2023/08/21 10:36:06;;;;;;;7.33;6.73;;;;;;;28.42;37.38;95344.63;6066568;28;110353;-63
2023/08/21 10:39:16;;;;;;;7.65;6.95;;;;;;;28.39;37.70;95353.38;6066391;28;110062;-63
2023/08/21 10:42:20;;;;;;;8.02;7.22;;;;;;;28.26;38.54;95337.25;6058884;28;109700;-66
2023/08/21 10:45:23;;;;;;;8.10;7.10;;;;;;;28.31;38.26;95342.41;6064685;28;109744;-63
2023/08/21 10:48:27;;;;;;;7.45;6.75;;;;;;;28.11;38.64;95337.94;6066744;28;109529;-66
2023/08/21 10:51:31;;;;;;;8.10;7.40;;;;;;;28.16;38.55;95336.91;6066251;28;109866;-62
2023/08/21 10:54:44;;;;;;;7.53;6.82;;;;;;;28.39;37.73;95335.31;6055241;28;109747;-62
2023/08/21 10:57:49;;;;;;;8.40;7.40;;;;;;;28.26;38.16;95337.25;6064999;28;109805;-62
2023/08/21 11:00:58;;;;;;;7.80;7.10;;;;;;;28.33;38.24;95328.59;6065963;28;109936;-62
2023/08/21 11:04:01;;;;;;;7.10;6.40;;;;;;;28.40;37.33;95326.13;6065976;28;109783;-62
2023/08/21 11:07:08;;;;;;;7.70;7.00;;;;;;;28.34;37.57;95322.09;6053684;28;109794;-62
2023/08/21 11:10:13;;;;;;;7.50;6.80;;;;;;;28.38;37.57;95325.66;6065762;28;110017;-62
2023/08/21 11:13:16;;;;;;;7.65;6.85;;;;;;;28.35;37.63;95315.56;6065760;28;109414;-62
2023/08/21 11:16:19;;;;;;;7.60;6.90;;;;;;;28.36;37.78;95322.53;6060270;28;109796;-67
2023/08/21 11:19:22;;;;;;;7.38;6.78;;;;;;;28.21;37.82;95320.53;6061648;28;109929;-62
2023/08/21 11:22:33;;;;;;;7.15;6.55;;;;;;;28.09;38.33;95315.97;6065650;28;109781;-62
2023/08/21 11:25:39;;;;;;;7.53;6.82;;;;;;;28.02;38.51;95313.03;6065853;28;110282;-62
2023/08/21 11:28:43;;;;;;;7.72;7.03;;;;;;;27.99;38.20;95316.41;6054061;28;109940;-62
2023/08/21 11:31:47;;;;;;;7.50;6.90;;;;;;;27.96;38.16;95315.19;6065538;28;110312;-62
2023/08/21 11:34:53;;;;;;;7.30;6.80;;;;;;;28.00;38.37;95310.69;6065534;28;110869;-68
2023/08/21 11:37:57;;;;;;;7.40;6.72;;;;;;;28.00;38.19;95302.63;6065580;28;109816;-62
2023/08/21 11:41:02;;;;;;;8.05;7.35;;;;;;;27.98;37.82;95306.78;6054923;28;109846;-62
2023/08/21 11:44:05;;;;;;;8.50;7.10;;;;;;;28.00;37.36;95283.78;6065528;28;109344;-62
2023/08/21 11:47:08;;;;;;;8.13;7.43;;;;;;;27.94;37.50;95295.13;6065035;28;109786;-62
2023/08/21 11:50:13;;;;;;;7.68;6.97;;;;;;;27.95;37.28;95296.69;6060498;28;109564;-62
2023/08/21 11:53:33;;;;;;;8.10;6.95;;;;;;;28.01;37.08;95295.31;6059478;28;110220;-62
2023/08/21 11:56:36;;;;;;;7.13;6.43;;;;;;;28.10;37.18;95282.56;6064262;28;110094;-62
2023/08/21 11:59:40;;;;;;;7.20;6.60;;;;;;;28.10;36.93;95287.16;6064378;28;109794;-62
2023/08/21 12:02:43;;;;;;;6.80;6.30;;;;;;;28.01;37.50;95271.91;6054357;28;109941;-61
2023/08/21 12:05:46;;;;;;;6.90;6.18;;;;;;;28.05;36.38;95275.47;6065399;28;109932;-62
2023/08/21 12:08:50;;;;;;;7.30;6.70;;;;;;;28.05;37.07;95280.06;6064605;28;110067;-61
2023/08/21 12:11:54;;;;;;;8.35;6.20;;;;;;;28.02;36.83;95280.75;6064649;28;109896;-62
2023/08/21 12:14:57;;;;;;;6.80;6.20;;;;;;;28.06;36.50;95284.34;6054459;28;110191;-69
2023/08/21 12:18:00;;;;;;;7.20;6.50;;;;;;;28.23;35.07;95281.41;6064759;28;109913;-70
2023/08/21 12:21:04;;;;;;;6.70;6.10;;;;;;;28.35;34.70;95275.19;6065459;28;110053;-69
2023/08/21 12:24:10;;;;;;;7.72;6.30;;;;;;;28.36;34.95;95276.75;6059592;28;129394;-69
2023/08/21 12:27:13;;;;;;;7.00;6.30;;;;;;;28.32;35.42;95267.81;6059422;28;109815;-69
2023/08/21 12:30:17;;;;;;;7.40;6.40;;;;;;;28.17;35.59;95269.28;6063617;28;110090;-69
2023/08/21 12:33:20;;;;;;;7.17;6.47;;;;;;;28.19;35.87;95269.75;6064467;28;109801;-69
2023/08/21 12:36:26;;;;;;;6.93;6.32;;;;;;;28.15;35.96;95270.75;6053825;28;110828;-69
2023/08/21 12:39:31;;;;;;;7.88;6.78;;;;;;;28.11;35.80;95261.81;6064513;28;110235;-69
2023/08/21 12:42:34;;;;;;;7.47;6.55;;;;;;;28.04;35.80;95255.06;6064295;28;110826;-69
2023/08/21 12:45:39;;;;;;;6.50;5.90;;;;;;;28.04;36.24;95255.06;6064268;28;111047;-69
2023/08/21 12:48:42;;;;;;;7.22;6.60;;;;;;;28.02;35.82;95249.25;6054020;28;109848;-69
2023/08/21 12:51:45;;;;;;;7.00;6.30;;;;;;;28.07;35.69;95260.94;6064524;28;110911;-70
2023/08/21 12:54:50;;;;;;;7.38;6.75;;;;;;;28.08;36.59;95251.72;6063892;28;109819;-70
2023/08/21 12:57:53;;;;;;;7.00;6.40;;;;;;;28.07;36.08;95255.53;6063509;28;109516;-68
2023/08/21 13:00:56;;;;;;;7.55;6.90;;;;;;;28.05;36.11;95248.56;6054587;28;109839;-70
2023/08/21 13:03:59;;;;;;;7.47;6.78;;;;;;;28.09;35.75;95247.91;6063987;28;109644;-69
2023/08/21 13:07:03;;;;;;;6.85;6.20;;;;;;;28.08;35.97;95244.44;6064068;28;110031;-69
2023/08/21 13:10:09;;;;;;;7.85;7.00;;;;;;;28.08;35.00;95230.19;6071177;28;109765;-69
2023/08/21 13:13:12;;;;;;;7.30;6.60;;;;;;;28.08;35.21;95230.97;6087702;28;109602;-69
2023/08/21 13:16:15;;;;;;;7.10;6.50;;;;;;;28.14;34.95;95226.13;6087236;28;109949;-69
2023/08/21 13:19:19;;;;;;;7.82;7.03;;;;;;;28.15;34.58;95230.41;6087529;28;109970;-68
2023/08/21 13:22:22;;;;;;;7.60;6.80;;;;;;;28.14;34.87;95218.06;6076421;28;109978;-68
2023/08/21 13:25:26;;;;;;;7.43;6.72;;;;;;;28.16;34.89;95227.34;6087207;28;109960;-63
2023/08/21 13:28:31;;;;;;;7.50;6.80;;;;;;;28.09;35.57;95223.69;6086403;28;111006;-62
2023/08/21 13:31:34;;;;;;;7.03;6.30;;;;;;;28.14;35.28;95223.44;6086382;28;109704;-61
2023/08/21 13:34:37;;;;;;;7.60;6.90;;;;;;;28.15;35.57;95220.41;6076372;28;109575;-61
2023/08/21 13:37:41;;;;;;;7.93;6.68;;;;;;;28.18;35.98;95229.72;6086930;28;109998;-61
2023/08/21 13:40:45;;;;;;;7.97;7.18;;;;;;;28.10;36.43;95227.94;6086629;28;110344;-62
2023/08/21 13:43:49;;;;;;;9.97;7.20;;;;;;;27.12;37.82;95217.16;6082253;28;112847;-65
2023/08/21 13:46:52;;;;;;;7.70;7.00;;;;;;;26.23;37.96;95220.22;6062314;28;109778;-64
2023/08/21 13:49:56;;;;;;;7.50;6.80;;;;;;;25.77;38.82;95213.09;6063398;28;111335;-63
2023/08/21 13:52:59;;;;;;;8.40;7.07;;;;;;;25.63;38.94;95212.53;6063453;28;109923;-64
2023/08/21 13:56:03;;;;;;;7.20;6.50;;;;;;;25.25;38.16;95213.31;6052899;28;110003;-64
2023/08/21 13:59:07;;;;;;;7.68;6.75;;;;;;;25.01;37.96;95221.13;6063255;28;109751;-64
2023/08/21 14:02:10;;;;;;;7.55;6.50;;;;;;;24.87;38.31;95210.63;6062399;28;110030;-62
2023/08/21 14:05:14;;;;;;;8.13;6.57;;;;;;;24.48;38.93;95207.03;6053591;28;110322;-63
2023/08/21 14:08:17;;;;;;;7.25;6.50;;;;;;;24.70;37.88;95202.63;6055053;28;110000;-62
2023/08/21 14:11:22;;;;;;;8.40;6.90;;;;;;;24.55;37.62;95200.44;6087191;28;110910;-63